Time;durP1;ratioP1;P1;durP2;ratioP2;P2;SDS_P1;SDS_P2;PMS_P1;PMS_P2;Temp;Humidity;BMP_temperature;BMP_pressure;BME280_temperature;BME280_humidity;BME280_pressure;Samples;Min_cycle;Max_cycle;Signal;HPM_P1;HPM_P2
2021/01/27 00:02:14;;;;;;;9.60;5.33;;;;;;;2.16;84.91;101593.75;4992691;28;20026;-80
2021/01/27 00:04:40;;;;;;;9.47;4.90;;;;;;;2.06;85.42;101592.22;4992302;28;20648;-81
2021/01/27 00:07:05;;;;;;;10.88;5.63;;;;;;;2.09;86.27;101589.03;4992655;28;20779;-80
2021/01/27 00:09:30;;;;;;;14.77;6.57;;;;;;;2.00;86.50;101580.78;4992952;28;20116;-79
2021/01/27 00:11:56;;;;;;;11.03;5.40;;;;;;;1.96;86.63;101577.16;4992902;28;20292;-81
2021/01/27 00:14:21;;;;;;;10.38;6.53;;;;;;;1.97;87.08;101584.00;4993686;28;20496;-80
2021/01/27 00:16:47;;;;;;;12.25;6.13;;;;;;;1.92;86.87;101576.81;4992432;28;20377;-81
2021/01/27 00:19:12;;;;;;;10.70;6.22;;;;;;;1.91;87.32;101577.59;4993489;28;20030;-81
2021/01/27 00:21:37;;;;;;;13.90;6.10;;;;;;;1.92;87.19;101567.56;4991938;28;20069;-80
2021/01/27 00:24:03;;;;;;;12.93;5.97;;;;;;;1.87;87.16;101574.84;4991759;28;20405;-80
2021/01/27 00:26:28;;;;;;;13.95;6.45;;;;;;;1.94;86.91;101570.22;4992226;28;20648;-80
2021/01/27 00:28:54;;;;;;;8.60;5.30;;;;;;;1.96;86.77;101563.63;4991290;28;20381;-79
2021/01/27 00:31:19;;;;;;;8.73;5.80;;;;;;;1.94;86.75;101562.59;4992132;28;20033;-80
2021/01/27 00:33:44;;;;;;;9.10;5.23;;;;;;;1.93;87.14;101560.84;4993334;28;20070;-79
2021/01/27 00:36:09;;;;;;;8.57;5.30;;;;;;;1.96;87.04;101549.31;4993148;28;20053;-80
2021/01/27 00:38:35;;;;;;;10.60;5.57;;;;;;;1.93;86.65;101544.00;4991421;28;20317;-80
2021/01/27 00:41:00;;;;;;;10.13;5.97;;;;;;;1.93;87.07;101540.56;4991040;28;20064;-81
2021/01/27 00:43:27;;;;;;;12.03;6.47;;;;;;;1.94;87.25;101532.19;4990757;28;20341;-80
2021/01/27 00:45:53;;;;;;;12.67;6.17;;;;;;;1.92;86.92;101514.38;4991656;28;20018;-82
2021/01/27 00:48:19;;;;;;;11.97;7.13;;;;;;;1.93;87.50;101521.19;4993658;28;20101;-80
2021/01/27 00:50:45;;;;;;;14.73;7.90;;;;;;;1.91;88.29;101517.66;4992225;28;20586;-81
2021/01/27 00:53:10;;;;;;;13.57;8.40;;;;;;;1.85;88.44;101509.66;4991706;28;20026;-80
2021/01/27 00:55:36;;;;;;;13.95;8.60;;;;;;;1.77;88.80;101506.59;4993304;28;20109;-79
2021/01/27 00:58:03;;;;;;;14.23;8.20;;;;;;;1.72;88.90;101518.06;4989989;28;20057;-79
2021/01/27 01:00:36;;;;;;;13.87;9.13;;;;;;;1.72;89.84;101507.94;4992791;28;20480;-79
2021/01/27 01:03:06;;;;;;;12.80;9.27;;;;;;;1.72;89.71;101520.59;4990687;28;20050;-80
2021/01/27 01:05:49;;;;;;;18.20;10.03;;;;;;;1.67;90.07;101504.22;4993754;28;20023;-78
2021/01/27 01:08:17;;;;;;;17.27;9.57;;;;;;;1.66;90.62;101488.91;4993243;28;20030;-79
2021/01/27 01:10:52;;;;;;;14.20;9.23;;;;;;;1.62;90.30;101485.25;4994377;28;20030;-81
2021/01/27 01:13:21;;;;;;;16.57;10.10;;;;;;;1.65;90.60;101480.44;4993469;28;20034;-81
2021/01/27 01:15:47;;;;;;;17.33;10.00;;;;;;;1.67;90.62;101463.69;4996191;28;20036;-80
2021/01/27 01:18:12;;;;;;;17.40;10.47;;;;;;;1.72;90.68;101462.34;4994957;28;20030;-81
2021/01/27 01:20:38;;;;;;;15.57;9.88;;;;;;;1.74;90.48;101453.19;4995562;28;20292;-79
2021/01/27 01:23:04;;;;;;;18.20;10.75;;;;;;;1.73;90.47;101463.22;4996247;28;20045;-79
2021/01/27 01:25:32;;;;;;;18.00;12.30;;;;;;;1.66;90.84;101451.81;4995984;28;20057;-80
2021/01/27 01:27:58;;;;;;;18.43;12.23;;;;;;;1.72;90.65;101451.34;4996081;28;20038;-79
2021/01/27 01:30:30;;;;;;;16.20;11.73;;;;;;;1.64;91.11;101435.63;4995717;28;20113;-80
2021/01/27 01:32:58;;;;;;;19.97;13.20;;;;;;;1.64;91.14;101430.56;4995213;28;20093;-81
2021/01/27 01:35:24;;;;;;;20.37;12.47;;;;;;;1.61;91.00;101419.31;4995797;28;20033;-78
2021/01/27 01:37:50;;;;;;;22.08;14.27;;;;;;;1.62;91.17;101411.81;4995368;28;20030;-80
2021/01/27 01:40:22;;;;;;;27.13;15.48;;;;;;;1.58;91.49;101406.44;4995484;28;20122;-82
2021/01/27 01:42:58;;;;;;;19.53;13.57;;;;;;;1.60;91.54;101404.91;4995300;28;20174;-80
2021/01/27 01:45:45;;;;;;;24.45;13.93;;;;;;;1.60;91.64;101394.78;4994733;28;21536;-81
2021/01/27 01:48:33;;;;;;;19.25;12.65;;;;;;;1.52;91.72;101385.00;4995000;28;20404;-80
2021/01/27 01:51:14;;;;;;;22.77;13.20;;;;;;;1.58;91.54;101366.81;4996510;28;20583;-79
2021/01/27 01:53:41;;;;;;;25.20;13.40;;;;;;;1.48;91.64;101370.38;4993854;28;20400;-78
2021/01/27 01:56:10;;;;;;;23.77;13.43;;;;;;;1.56;91.85;101363.31;4993891;28;20035;-80
2021/01/27 01:58:37;;;;;;;17.70;12.80;;;;;;;1.55;91.60;101374.22;4994611;28;20057;-80
2021/01/27 02:01:03;;;;;;;19.13;12.03;;;;;;;1.56;91.23;101354.06;4993981;28;20026;-79
2021/01/27 02:03:31;;;;;;;19.75;12.07;;;;;;;1.56;91.37;101359.13;4993584;28;20018;-80
2021/01/27 02:05:58;;;;;;;17.27;12.53;;;;;;;1.59;91.18;101348.31;4993874;28;20074;-80
2021/01/27 02:08:24;;;;;;;20.10;12.57;;;;;;;1.60;91.24;101344.13;4993191;28;20048;-78
2021/01/27 02:10:49;;;;;;;;;;;;;;;1.65;90.61;101345.34;4994222;28;20493;-79
2021/01/27 02:13:14;;;;;;;20.57;12.00;;;;;;;1.63;91.03;101352.84;4995443;28;19993;-79
2021/01/27 02:15:51;;;;;;;20.67;13.57;;;;;;;1.61;90.92;101366.16;4995112;28;20034;-79
2021/01/27 02:18:28;;;;;;;21.13;12.15;;;;;;;1.59;90.66;101353.38;4995394;28;20277;-80
2021/01/27 02:21:26;;;;;;;16.63;11.30;;;;;;;1.59;91.09;101347.44;4995187;28;20535;-79
2021/01/27 02:24:03;;;;;;;17.88;12.23;;;;;;;1.63;90.91;101349.44;4974479;28;20030;-80
2021/01/27 02:26:52;;;;;;;20.13;11.43;;;;;;;1.64;91.12;101347.00;4992362;28;20057;-80
2021/01/27 02:29:36;;;;;;;19.87;12.60;;;;;;;1.60;91.10;101344.13;4991880;28;20022;-82
2021/01/27 02:32:42;;;;;;;18.00;12.30;;;;;;;1.56;91.29;101332.94;4993082;28;20026;-79
2021/01/27 02:35:33;;;;;;;17.70;11.70;;;;;;;1.50;91.53;101319.84;4992343;28;20076;-78
2021/01/27 02:38:09;;;;;;;20.83;12.60;;;;;;;1.49;91.74;101303.78;4992339;28;20040;-81
2021/01/27 02:40:39;;;;;;;16.42;9.63;;;;;;;1.48;91.46;101294.44;4996231;28;20109;-79
2021/01/27 02:43:24;;;;;;;20.93;13.33;;;;;;;1.51;91.59;101298.84;4997257;28;20046;-80
2021/01/27 02:45:57;;;;;;;14.90;10.70;;;;;;;1.52;91.58;101300.59;4995975;28;20026;-79
2021/01/27 02:48:37;;;;;;;17.83;11.47;;;;;;;1.50;91.45;101286.94;4996312;28;20026;-78
2021/01/27 02:51:44;;;;;;;15.93;12.33;;;;;;;1.51;91.72;101282.00;4994543;28;20045;-80
2021/01/27 02:54:15;;;;;;;14.73;11.03;;;;;;;1.53;91.62;101264.38;4995771;28;20032;-79
2021/01/27 02:56:51;;;;;;;15.47;10.33;;;;;;;1.52;91.46;101275.28;4993690;28;20502;-81
2021/01/27 02:59:25;;;;;;;13.77;10.00;;;;;;;1.48;91.69;101278.38;4995334;28;20465;-80
2021/01/27 03:02:11;;;;;;;17.10;12.73;;;;;;;1.52;91.76;101280.34;4993576;28;20309;-79
2021/01/27 03:04:42;;;;;;;17.13;11.80;;;;;;;1.56;91.84;101279.75;4993079;28;20080;-79
2021/01/27 03:07:11;;;;;;;14.87;11.53;;;;;;;1.55;91.85;101278.88;4995737;28;20073;-79
2021/01/27 03:09:46;;;;;;;17.77;12.67;;;;;;;1.54;91.88;101273.72;4992044;28;20026;-80
2021/01/27 03:12:12;;;;;;;16.87;11.37;;;;;;;1.55;91.56;101271.28;4994597;28;20080;-80
2021/01/27 03:14:37;;;;;;;21.35;12.27;;;;;;;1.56;91.82;101257.84;4995156;28;20038;-80
2021/01/27 03:17:08;;;;;;;16.52;11.73;;;;;;;1.55;91.86;101260.28;4992705;28;20073;-81
2021/01/27 03:19:52;;;;;;;14.63;11.27;;;;;;;1.56;91.73;101267.09;4992477;28;20094;-81
2021/01/27 03:22:21;;;;;;;16.50;11.93;;;;;;;1.56;91.68;101255.31;4992463;28;20022;-81
2021/01/27 03:24:53;;;;;;;15.60;11.33;;;;;;;1.51;91.88;101261.72;4992223;28;20026;-81
2021/01/27 03:27:24;;;;;;;19.07;10.97;;;;;;;1.53;92.05;101256.78;4993922;28;20033;-81
2021/01/27 03:29:55;;;;;;;17.23;11.43;;;;;;;1.48;92.13;101255.59;4991902;28;20022;-83
2021/01/27 03:32:42;;;;;;;14.63;10.57;;;;;;;1.49;92.05;101249.75;4991131;28;20041;-81
2021/01/27 03:35:21;;;;;;;16.33;10.80;;;;;;;1.50;91.98;101246.44;4993172;28;20519;-81
2021/01/27 03:37:53;;;;;;;16.57;11.87;;;;;;;1.48;92.30;101246.34;4994020;28;20053;-81
2021/01/27 03:40:20;;;;;;;14.03;10.33;;;;;;;1.40;92.21;101247.50;4993315;28;20049;-79
2021/01/27 03:43:01;;;;;;;22.07;11.97;;;;;;;1.46;92.57;101241.97;4993897;28;20101;-82
2021/01/27 03:45:31;;;;;;;13.67;11.50;;;;;;;1.47;92.47;101238.66;4991868;28;20034;-80
2021/01/27 03:48:05;;;;;;;14.27;11.17;;;;;;;1.52;92.44;101232.22;4993947;28;20053;-81
2021/01/27 03:50:32;;;;;;;14.70;11.23;;;;;;;1.49;92.53;101229.50;4990636;28;20029;-80
2021/01/27 03:53:01;;;;;;;14.67;11.50;;;;;;;1.47;92.26;101213.34;4993272;28;20397;-82
2021/01/27 03:55:56;;;;;;;16.60;11.07;;;;;;;1.45;92.32;101223.34;4991848;28;20497;-81
2021/01/27 03:58:24;;;;;;;16.67;11.47;;;;;;;1.47;92.54;101218.41;4992041;28;20026;-81
2021/01/27 04:00:50;;;;;;;14.53;9.80;;;;;;;1.48;92.64;101207.50;4993184;28;20023;-80
2021/01/27 04:03:20;;;;;;;13.63;9.93;;;;;;;1.48;93.08;101210.03;4992034;28;20030;-79
2021/01/27 04:05:46;;;;;;;13.90;9.93;;;;;;;1.47;93.06;101215.88;4991991;28;20105;-80
2021/01/27 04:08:11;;;;;;;13.95;10.27;;;;;;;1.47;93.40;101205.75;4991241;28;20050;-80
2021/01/27 04:10:37;;;;;;;14.77;9.95;;;;;;;1.47;93.39;101198.16;4993299;28;20034;-79
2021/01/27 04:13:03;;;;;;;15.00;9.45;;;;;;;1.50;93.34;101194.16;4993202;28;20057;-81
2021/01/27 04:15:28;;;;;;;14.98;8.52;;;;;;;1.45;93.16;101192.09;4992065;28;20034;-83
2021/01/27 04:17:54;;;;;;;11.30;8.80;;;;;;;1.46;93.55;101188.78;4994264;28;20031;-81
2021/01/27 04:20:19;;;;;;;12.95;8.38;;;;;;;1.44;93.76;101170.09;4994996;28;20277;-80
2021/01/27 04:22:45;;;;;;;14.00;8.38;;;;;;;1.45;93.75;101174.38;4995830;28;20528;-82
2021/01/27 04:25:12;;;;;;;10.45;8.18;;;;;;;1.45;93.21;101166.78;4994860;28;20160;-82
2021/01/27 04:27:37;;;;;;;10.87;8.40;;;;;;;1.45;93.63;101162.59;4993643;28;20053;-81
2021/01/27 04:30:05;;;;;;;12.77;8.98;;;;;;;1.47;93.62;101145.00;4995962;28;20463;-82
2021/01/27 04:32:30;;;;;;;13.47;8.50;;;;;;;1.48;93.50;101151.81;4993082;28;20077;-81
2021/01/27 04:34:55;;;;;;;11.02;9.10;;;;;;;1.45;93.72;101128.81;4994018;28;20038;-82
2021/01/27 04:37:20;;;;;;;12.83;9.33;;;;;;;1.45;93.70;101136.41;4993505;28;20034;-83
2021/01/27 04:39:46;;;;;;;18.93;10.90;;;;;;;1.44;93.61;101127.06;4994595;28;20356;-80
2021/01/27 04:42:12;;;;;;;14.90;9.93;;;;;;;1.40;93.90;101122.59;4992768;28;20093;-82
2021/01/27 04:44:37;;;;;;;12.63;9.75;;;;;;;1.39;93.98;101128.44;4994414;28;20309;-82
2021/01/27 04:47:27;;;;;;;15.65;9.95;;;;;;;1.38;94.25;101139.34;4994387;28;20109;-82
2021/01/27 04:50:02;;;;;;;13.67;9.80;;;;;;;1.46;93.88;101140.69;4991825;28;20081;-81
2021/01/27 04:52:54;;;;;;;12.63;9.37;;;;;;;1.41;94.28;101135.34;4996548;28;20062;-82
2021/01/27 04:55:47;;;;;;;14.00;8.80;;;;;;;1.45;94.18;101131.34;4995788;28;20022;-82
2021/01/27 04:58:21;;;;;;;12.23;8.63;;;;;;;1.48;94.01;101123.97;4995033;28;20040;-81
2021/01/27 05:00:58;;;;;;;10.10;8.10;;;;;;;1.46;94.20;101122.97;5052412;23;20043;-80
2021/01/27 05:03:44;;;;;;;;;;;;;;;1.46;94.20;101117.91;5052552;28;20029;-80
2021/01/27 05:06:17;;;;;;;9.60;7.50;;;;;;;1.48;94.26;101116.38;5052938;28;19916;-80
2021/01/27 05:08:55;;;;;;;12.43;7.90;;;;;;;1.50;94.15;101115.69;5053256;28;20025;-80
2021/01/27 05:11:21;;;;;;;11.87;7.37;;;;;;;1.55;93.88;101103.31;5034201;28;20434;-82
2021/01/27 05:13:51;;;;;;;9.90;7.40;;;;;;;1.54;93.79;101091.44;5035519;28;20021;-82
2021/01/27 05:16:26;;;;;;;10.90;6.97;;;;;;;1.55;93.81;101088.13;5036091;28;20021;-80
2021/01/27 05:18:54;;;;;;;9.43;7.13;;;;;;;1.50;94.13;101076.84;5035072;28;20025;-78
2021/01/27 05:21:32;;;;;;;10.13;7.13;;;;;;;1.50;94.01;101069.25;5035515;28;20083;-78
2021/01/27 05:23:59;;;;;;;9.43;6.93;;;;;;;1.52;94.15;101073.63;5035693;28;20689;-80
2021/01/27 05:26:33;;;;;;;9.17;6.67;;;;;;;1.52;93.91;101067.69;5034740;28;20064;-79
2021/01/27 05:29:03;;;;;;;10.60;7.33;;;;;;;1.54;94.16;101076.25;5035261;28;20071;-80
2021/01/27 05:31:59;;;;;;;7.23;5.00;;;;;;;1.48;94.35;101075.84;5033853;28;20072;-81
2021/01/27 05:34:43;;;;;;;12.03;6.23;;;;;;;1.49;94.31;101075.09;5034774;28;20034;-79
2021/01/27 05:37:19;;;;;;;9.83;7.20;;;;;;;1.48;94.61;101075.84;5033788;28;20654;-78
2021/01/27 05:39:46;;;;;;;11.00;7.57;;;;;;;1.50;94.51;101079.38;5033604;28;20069;-79
2021/01/27 05:42:11;;;;;;;8.97;7.30;;;;;;;1.52;94.61;101073.63;5033807;28;20021;-79
2021/01/27 05:44:37;;;;;;;10.10;6.23;;;;;;;1.49;94.66;101077.63;5033702;28;20033;-78
2021/01/27 05:47:47;;;;;;;9.02;6.43;;;;;;;1.50;94.41;101066.72;5033713;28;20280;-79
2021/01/27 05:50:15;;;;;;;10.03;6.53;;;;;;;1.52;94.59;101072.75;5026687;28;20060;-79
2021/01/27 05:52:44;;;;;;;8.33;6.53;;;;;;;1.55;94.59;101070.41;5034871;28;20083;-79
2021/01/27 05:55:09;;;;;;;10.27;6.87;;;;;;;1.51;94.69;101073.53;5034869;28;20403;-78
2021/01/27 05:57:35;;;;;;;9.45;6.70;;;;;;;1.58;94.74;101073.13;5035389;28;20044;-79
2021/01/27 06:00:10;;;;;;;9.50;6.40;;;;;;;1.56;94.91;101069.63;5033036;28;20025;-80
2021/01/27 06:02:43;;;;;;;8.47;5.40;;;;;;;1.59;94.54;101079.94;5032853;28;20064;-80
2021/01/27 06:05:14;;;;;;;7.07;5.30;;;;;;;1.54;94.85;101077.13;5033148;28;20051;-79
2021/01/27 06:07:40;;;;;;;7.20;5.40;;;;;;;1.54;94.79;101072.06;5031908;28;20068;-79
2021/01/27 06:10:25;;;;;;;8.18;6.50;;;;;;;1.56;94.78;101054.44;5032648;28;20095;-78
2021/01/27 06:12:50;;;;;;;9.97;6.73;;;;;;;1.57;94.92;101061.25;5033858;28;20112;-78
2021/01/27 06:15:29;;;;;;;8.38;6.30;;;;;;;1.61;94.99;101057.25;5034201;28;20112;-78
2021/01/27 06:17:54;;;;;;;9.17;6.43;;;;;;;1.62;95.03;101036.22;5033490;28;20076;-78
2021/01/27 06:20:30;;;;;;;9.07;6.63;;;;;;;1.60;94.81;101037.78;5034746;28;20436;-79
2021/01/27 06:23:26;;;;;;;10.73;7.70;;;;;;;1.53;95.16;101028.94;5033427;28;20144;-81
2021/01/27 06:26:29;;;;;;;11.97;7.40;;;;;;;1.60;95.16;101042.84;5032473;28;20029;-78
2021/01/27 06:29:17;;;;;;;13.90;7.80;;;;;;;1.62;95.23;101047.22;5031461;28;20036;-79
2021/01/27 06:31:55;;;;;;;9.43;6.73;;;;;;;1.65;95.05;101044.91;5034723;28;20483;-79
2021/01/27 06:34:43;;;;;;;9.43;6.87;;;;;;;1.66;94.85;101041.59;5033763;28;20060;-79
2021/01/27 06:37:35;;;;;;;9.53;6.30;;;;;;;1.68;94.95;101049.28;5032529;28;20033;-81
2021/01/27 06:40:31;;;;;;;9.93;7.30;;;;;;;1.64;94.82;101052.41;5033288;28;20029;-79
2021/01/27 06:43:08;;;;;;;10.40;6.50;;;;;;;1.65;94.75;101049.97;5032790;28;20029;-79
2021/01/27 06:45:52;;;;;;;;;;;;;;;1.61;94.81;101037.88;5032928;28;20093;-80
2021/01/27 06:48:48;;;;;;;12.97;8.13;;;;;;;1.62;95.15;101016.81;5033456;28;20066;-78
2021/01/27 06:51:39;;;;;;;12.23;9.23;;;;;;;1.65;95.29;101014.50;5032673;28;20039;-79
2021/01/27 06:54:23;;;;;;;14.70;9.50;;;;;;;1.70;94.84;101012.25;5032035;28;20037;-79
2021/01/27 06:56:57;;;;;;;12.97;9.67;;;;;;;1.75;94.93;101026.06;5031716;28;20056;-78
2021/01/27 06:59:41;;;;;;;15.83;10.17;;;;;;;1.71;94.96;101016.53;5032628;28;20104;-80
2021/01/27 07:02:46;;;;;;;16.43;11.43;;;;;;;1.69;95.25;101008.84;5031738;28;20083;-79
2021/01/27 07:05:43;;;;;;;17.23;11.00;;;;;;;1.69;95.11;101006.31;5031901;28;20025;-79
2021/01/27 07:08:43;;;;;;;17.97;11.97;;;;;;;1.73;95.28;100998.13;5033229;28;20017;-79
2021/01/27 07:11:33;;;;;;;19.47;12.77;;;;;;;1.74;95.37;100999.00;5032465;28;20541;-80
2021/01/27 07:14:17;;;;;;;23.17;15.10;;;;;;;1.69;95.38;100987.72;5032614;28;20056;-81
2021/01/27 07:17:00;;;;;;;24.33;15.93;;;;;;;1.75;95.43;101005.81;5033278;28;20395;-77
2021/01/27 07:19:55;;;;;;;23.13;15.23;;;;;;;1.76;95.40;101013.50;5032771;28;20037;-77
2021/01/27 07:22:45;;;;;;;24.23;16.67;;;;;;;1.78;95.53;101024.59;5031945;28;20017;-80
2021/01/27 07:25:20;;;;;;;29.23;18.40;;;;;;;1.76;95.58;101022.75;5031838;28;20045;-81
2021/01/27 07:28:06;;;;;;;30.40;19.10;;;;;;;1.81;95.43;101026.44;5031457;28;20554;-79
2021/01/27 07:30:40;;;;;;;33.33;20.03;;;;;;;1.79;95.61;101033.94;5032310;28;20041;-77
2021/01/27 07:33:14;;;;;;;36.03;21.40;;;;;;;1.81;95.60;101028.97;5032028;28;20495;-78
2021/01/27 07:36:00;;;;;;;33.47;21.10;;;;;;;1.84;95.83;101027.50;5030098;28;20029;-78
2021/01/27 07:38:32;;;;;;;40.60;22.65;;;;;;;1.85;95.68;101021.66;5032902;28;20388;-79
2021/01/27 07:41:02;;;;;;;40.13;23.63;;;;;;;1.79;95.82;101022.94;5032340;28;20861;-79
2021/01/27 07:43:36;;;;;;;37.90;22.70;;;;;;;1.83;96.08;101028.28;5032273;28;20025;-78
2021/01/27 07:46:02;;;;;;;43.23;24.83;;;;;;;1.88;95.98;101026.91;5040438;28;20022;-79
2021/01/27 07:48:46;;;;;;;41.58;24.65;;;;;;;1.96;95.89;101022.34;5031398;28;20036;-78
2021/01/27 07:51:19;;;;;;;38.47;23.17;;;;;;;1.94;95.92;101026.41;5031492;28;20529;-78
2021/01/27 07:54:04;;;;;;;40.40;23.27;;;;;;;1.95;95.95;101030.72;5032042;28;20033;-81
2021/01/27 07:57:01;;;;;;;43.00;23.93;;;;;;;2.09;95.94;101034.94;5030833;28;20062;-79
2021/01/27 07:59:33;;;;;;;41.43;23.17;;;;;;;2.05;95.98;101038.09;5030700;28;20029;-80
2021/01/27 08:02:07;;;;;;;38.43;23.10;;;;;;;2.11;96.06;101028.31;5030744;28;20025;-79
2021/01/27 08:04:47;;;;;;;36.30;21.30;;;;;;;2.16;96.04;101026.94;5032177;28;20372;-78
2021/01/27 08:07:32;;;;;;;40.20;23.37;;;;;;;2.22;96.06;101023.88;5030987;28;20080;-78
2021/01/27 08:10:35;;;;;;;34.37;20.40;;;;;;;2.23;95.97;101015.50;5029723;28;20555;-83
2021/01/27 08:13:05;;;;;;;36.90;20.10;;;;;;;2.20;95.90;101010.25;5029283;28;20041;-79
2021/01/27 08:15:31;;;;;;;34.93;20.83;;;;;;;2.18;96.04;101007.63;5028430;28;20445;-77
2021/01/27 08:17:59;;;;;;;33.00;19.87;;;;;;;2.19;95.96;101016.09;5030220;28;20108;-78
2021/01/27 08:20:36;;;;;;;39.17;22.30;;;;;;;2.23;96.13;101018.03;5029133;28;20568;-81
2021/01/27 08:23:23;;;;;;;32.43;19.67;;;;;;;2.24;96.26;101034.97;5032857;28;20057;-78
2021/01/27 08:26:04;;;;;;;26.70;15.32;;;;;;;2.26;96.25;101025.81;5031820;28;20048;-78
2021/01/27 08:28:35;;;;;;;29.63;19.47;;;;;;;2.31;96.22;101026.97;5033615;28;20048;-78
2021/01/27 08:31:12;;;;;;;34.03;19.57;;;;;;;2.31;96.13;101026.97;5033162;28;20037;-78
2021/01/27 08:33:44;;;;;;;31.03;18.30;;;;;;;2.38;96.07;101034.16;5031832;28;20033;-77
2021/01/27 08:36:17;;;;;;;30.50;18.90;;;;;;;2.42;96.17;101037.75;5034264;28;20041;-77
2021/01/27 08:39:06;;;;;;;30.43;18.43;;;;;;;2.47;95.96;101044.84;5033282;28;20111;-77
2021/01/27 08:41:43;;;;;;;32.93;19.33;;;;;;;2.43;95.96;101044.56;5033827;28;20052;-78
2021/01/27 08:44:20;;;;;;;31.70;18.93;;;;;;;2.52;95.79;101036.63;5031486;28;20026;-78
2021/01/27 08:46:59;;;;;;;34.10;18.83;;;;;;;2.61;95.82;101038.06;5032579;28;20131;-79
2021/01/27 08:49:37;;;;;;;34.33;20.97;;;;;;;2.52;96.05;101041.69;5031677;28;20494;-77
2021/01/27 08:52:30;;;;;;;35.77;20.23;;;;;;;2.52;96.14;101042.56;5033764;28;20025;-77
2021/01/27 08:54:56;;;;;;;35.00;20.40;;;;;;;2.60;96.13;101041.38;5031752;28;20060;-79
2021/01/27 08:57:29;;;;;;;34.25;20.13;;;;;;;2.65;96.12;101046.72;5033950;28;20033;-78
2021/01/27 09:00:12;;;;;;;36.20;20.83;;;;;;;2.67;96.11;101052.75;5032053;28;20037;-77
2021/01/27 09:02:59;;;;;;;40.53;22.07;;;;;;;2.67;96.16;101057.81;5032671;28;20025;-80
2021/01/27 09:05:24;;;;;;;29.48;16.58;;;;;;;2.70;96.04;101058.88;5032247;28;20116;-77
2021/01/27 09:08:15;;;;;;;37.43;21.50;;;;;;;2.69;96.27;101064.72;5032530;28;20697;-78
2021/01/27 09:10:47;;;;;;;36.70;21.03;;;;;;;2.76;96.36;101060.88;5024586;28;20044;-78
2021/01/27 09:13:37;;;;;;;39.30;21.83;;;;;;;2.80;96.00;101060.28;5031250;28;20018;-77
2021/01/27 09:16:08;;;;;;;36.20;20.97;;;;;;;2.83;95.96;101060.44;5032270;28;20028;-77
2021/01/27 09:18:35;;;;;;;38.33;22.80;;;;;;;2.77;96.08;101060.09;5031143;28;20064;-78
2021/01/27 09:21:15;;;;;;;39.57;23.20;;;;;;;2.82;96.31;101063.78;5030599;28;20419;-78
2021/01/27 09:23:43;;;;;;;37.50;21.70;;;;;;;2.86;96.43;101075.84;5031660;28;20100;-77
2021/01/27 09:26:15;;;;;;;43.43;23.80;;;;;;;2.99;96.21;101082.53;5029589;28;20438;-77
2021/01/27 09:28:40;;;;;;;39.33;21.80;;;;;;;2.95;96.29;101076.41;5031727;28;20029;-78
2021/01/27 09:31:18;;;;;;;42.53;22.23;;;;;;;2.98;96.24;101071.50;5031953;28;20550;-78
2021/01/27 09:33:44;;;;;;;36.87;21.60;;;;;;;3.10;96.03;101087.41;5032080;28;20112;-79
2021/01/27 09:36:18;;;;;;;36.03;21.55;;;;;;;3.11;95.70;101094.25;5031285;28;20156;-78
2021/01/27 09:38:43;;;;;;;34.87;20.90;;;;;;;3.20;95.70;101093.00;5032427;28;20092;-79
2021/01/27 09:41:13;;;;;;;36.55;21.75;;;;;;;3.13;95.69;101095.22;5032585;28;20515;-79
2021/01/27 09:43:42;;;;;;;37.87;22.83;;;;;;;3.24;95.97;101088.19;5033153;28;20022;-78
2021/01/27 09:46:25;;;;;;;44.57;23.47;;;;;;;3.29;96.07;101088.47;5032597;28;20021;-79
2021/01/27 09:48:53;;;;;;;42.60;22.60;;;;;;;3.29;96.07;101096.97;5031131;28;20043;-79
2021/01/27 09:51:19;;;;;;;38.23;22.00;;;;;;;3.29;96.26;101104.59;5031852;28;20064;-81
2021/01/27 09:53:44;;;;;;;41.97;23.10;;;;;;;3.34;96.27;101102.31;5031871;28;20112;-79
2021/01/27 09:56:14;;;;;;;41.35;23.25;;;;;;;3.29;96.21;101111.31;5032955;28;20070;-78
2021/01/27 09:58:41;;;;;;;44.53;23.60;;;;;;;3.29;96.14;101113.88;5032459;28;20406;-80
2021/01/27 10:01:10;;;;;;;46.28;24.50;;;;;;;3.28;96.34;101114.66;5032825;28;20029;-80
2021/01/27 10:03:39;;;;;;;46.13;23.67;;;;;;;3.27;96.65;101115.44;5031884;28;20525;-79
2021/01/27 10:06:44;;;;;;;43.70;24.40;;;;;;;3.37;96.34;101120.25;5031877;28;20025;-79
2021/01/27 10:09:31;;;;;;;43.50;22.57;;;;;;;3.45;96.45;101116.47;5032381;28;20044;-79
2021/01/27 10:12:06;;;;;;;34.10;18.48;;;;;;;3.49;96.49;101118.38;5032540;28;20590;-78
2021/01/27 10:14:34;;;;;;;43.50;24.30;;;;;;;3.49;96.23;101126.00;5032896;28;20039;-80
2021/01/27 10:17:03;;;;;;;51.17;26.07;;;;;;;3.56;96.29;101117.06;5032968;28;20025;-79
2021/01/27 10:19:32;;;;;;;44.90;25.00;;;;;;;3.65;96.51;101118.47;5031051;28;20410;-80
2021/01/27 10:21:59;;;;;;;46.73;24.60;;;;;;;3.61;96.18;101123.31;5031330;28;20429;-81
2021/01/27 10:24:46;;;;;;;43.83;25.43;;;;;;;3.69;96.34;101128.00;5031500;28;20025;-79
2021/01/27 10:27:32;;;;;;;44.40;25.48;;;;;;;3.74;95.99;101131.69;5032332;28;20037;-78
2021/01/27 10:29:58;;;;;;;45.80;25.30;;;;;;;3.80;96.24;101133.69;5032525;28;20104;-78
2021/01/27 10:32:41;;;;;;;43.13;25.30;;;;;;;3.82;96.25;101138.84;5033129;28;20029;-79
2021/01/27 10:35:24;;;;;;;43.20;24.47;;;;;;;3.96;96.15;101137.94;5032265;28;20163;-78
2021/01/27 10:38:17;;;;;;;42.37;25.23;;;;;;;3.99;96.00;101133.91;5031308;28;20486;-80
2021/01/27 10:41:06;;;;;;;44.63;25.43;;;;;;;4.05;95.94;101133.34;5031598;28;20021;-78
2021/01/27 10:43:31;;;;;;;51.50;25.87;;;;;;;4.09;95.52;101142.91;5032332;28;20097;-78
2021/01/27 10:45:56;;;;;;;45.63;26.23;;;;;;;4.20;95.40;101138.38;5031835;28;20450;-79
2021/01/27 10:48:31;;;;;;;45.05;26.50;;;;;;;4.25;95.10;101139.53;5030411;28;20463;-81
2021/01/27 10:51:05;;;;;;;45.20;25.23;;;;;;;4.19;95.01;101137.50;5030201;28;20471;-79
2021/01/27 10:53:44;;;;;;;46.47;25.87;;;;;;;4.31;95.34;101129.69;5031292;28;20029;-80
2021/01/27 10:56:15;;;;;;;44.33;25.80;;;;;;;4.39;94.84;101148.75;5029406;28;20043;-78
2021/01/27 10:58:40;;;;;;;45.83;27.27;;;;;;;4.42;94.70;101143.84;5030231;28;20103;-78
2021/01/27 11:01:05;;;;;;;48.00;27.80;;;;;;;4.38;94.80;101147.88;5031982;28;20029;-78
2021/01/27 11:03:31;;;;;;;45.47;26.87;;;;;;;4.40;94.68;101131.81;5031816;28;20025;-79
2021/01/27 11:05:57;;;;;;;51.55;27.30;;;;;;;4.40;94.80;101134.38;5031898;28;20538;-78
2021/01/27 11:08:28;;;;;;;45.80;26.55;;;;;;;4.34;94.74;101137.47;5031060;28;20037;-78
2021/01/27 11:11:03;;;;;;;52.30;27.93;;;;;;;4.34;94.54;101143.44;5123801;27;20124;-79
2021/01/27 11:13:31;;;;;;;56.10;27.43;;;;;;;4.30;95.10;101136.44;5096556;28;20086;-78
2021/01/27 11:15:57;;;;;;;53.47;28.20;;;;;;;4.29;95.11;101149.06;5092657;28;20500;-78
2021/01/27 11:18:22;;;;;;;54.67;28.70;;;;;;;4.30;95.34;101141.53;5101563;28;20023;-79
2021/01/27 11:20:48;;;;;;;53.53;29.50;;;;;;;4.46;95.44;101138.09;5097403;28;20019;-78
2021/01/27 11:23:14;;;;;;;51.70;27.25;;;;;;;4.50;95.45;101145.09;5099367;28;20579;-80
2021/01/27 11:25:39;;;;;;;48.30;26.83;;;;;;;4.58;95.09;101138.78;5096740;28;20046;-78
2021/01/27 11:28:04;;;;;;;43.88;26.40;;;;;;;4.59;95.46;101137.97;5102775;28;20028;-81
2021/01/27 11:30:30;;;;;;;51.78;27.55;;;;;;;4.77;95.18;101130.41;5101613;28;20028;-80
2021/01/27 11:32:56;;;;;;;51.58;29.15;;;;;;;4.67;94.97;101139.25;5101512;28;20074;-78
2021/01/27 11:35:24;;;;;;;49.45;27.20;;;;;;;4.78;94.80;101134.69;5097500;28;20444;-79
2021/01/27 11:37:49;;;;;;;52.17;28.23;;;;;;;4.79;95.28;101133.91;5103092;28;20093;-79
2021/01/27 11:40:20;;;;;;;55.00;28.20;;;;;;;4.82;95.05;101133.19;5095169;28;20024;-79
2021/01/27 11:42:46;;;;;;;48.37;26.93;;;;;;;4.87;95.24;101137.69;5100763;28;20031;-79
2021/01/27 11:45:12;;;;;;;56.92;28.20;;;;;;;4.80;95.05;101135.66;5101282;28;20032;-79
2021/01/27 11:47:37;;;;;;;56.97;30.30;;;;;;;4.76;95.72;101138.84;5090232;28;20035;-80
2021/01/27 11:50:05;;;;;;;56.72;29.88;;;;;;;4.80;95.91;101134.78;5093920;28;20028;-79
2021/01/27 11:52:30;;;;;;;62.67;30.43;;;;;;;4.87;95.53;101132.59;5096441;28;20031;-81
2021/01/27 11:54:55;;;;;;;51.58;27.60;;;;;;;4.88;95.80;101139.47;5098714;28;20648;-79